Hlavní strana
METAR-TAF:

METAR-TAF

Letiště :

Cerklje ob Krki, Slovinsko

zeměpisná šířka: 45-53-59N, zeměpisná délka: 15-30-55E, výška: 157 m

Aktuální stav počasí

Zpráva byla vytvořena před 32 minutami, v 00:30 UTC
Bezvětří
Teplota 5°C
Vlhkost vzduchu 93%
Tlak 1028 hPa
Viditelnost 10 km a více

METAR: LJCE 200030Z AUTO 00000KT 9999 NCD 05/04 Q1028

Čas: 03:02 (01:02 UTC)

Předpověď počasí

Zpráva byla vytvořena před 2 hodinami a 2 minutami, v 23:00 UTC
Předpověď platná od 20 v 00 UTC do 20 v 09 UTC
vítr z různých směrů 2 kt
Viditelnost 10 km a více
Žádná oblačnost pod 1500 m, nevyskytují se cumulonimby.
Změna
od 20 v 04 UTC do 20 v 06 UTC
Západní vítr 3 kt
Změna
od 20 v 08 UTC do 20 v 09 UTC
Východní vítr 5 kt

TAF: LJCE 192300Z 2000/2009 VRB02KT CAVOK BECMG 2004/2006 26003KT BECMG 2008/2009 08005KT

Stav a předpovědi počasí z více než 4 000 letišť (zprávy METAR a TAF).

Červené a žluté tečky na mapě představují dostupné meteorologické stanice.

Když kurzor umístíte na tečku, zobrazí se název stanice.

Pak kliknutím zobrazíte stav a předpověď počasí.

Chcete-li změnit mapu, kliknutím na zelené tlačítko se znaménkem +mapu přiblížíte, kliknutím na zelené tlačítko se znaménkem – mapu oddálíte a kliknutím na zelené šipky přejdete na sousední mapy.


METAR-TAF: